sensor_id;sensor_type;location;lat;lon;timestamp;P1;durP1;ratioP1;P2;durP2;ratioP2
20458;SDS011;10388;52.314;7.938;2022-07-06T03:32:51;4.70;;;2.80;;
20458;SDS011;10388;52.314;7.938;2022-07-06T03:35:21;5.53;;;2.67;;
20458;SDS011;10388;52.314;7.938;2022-07-06T03:37:52;3.80;;;2.10;;
20458;SDS011;10388;52.314;7.938;2022-07-06T03:40:23;4.27;;;2.20;;
20458;SDS011;10388;52.314;7.938;2022-07-06T03:42:53;6.30;;;2.40;;
20458;SDS011;10388;52.314;7.938;2022-07-06T03:45:24;4.13;;;2.33;;
20458;SDS011;10388;52.314;7.938;2022-07-06T03:47:54;4.87;;;2.37;;
20458;SDS011;10388;52.314;7.938;2022-07-06T03:50:25;6.67;;;2.47;;
20458;SDS011;10388;52.314;7.938;2022-07-06T03:52:55;4.27;;;2.30;;
20458;SDS011;10388;52.314;7.938;2022-07-06T03:55:26;3.90;;;2.60;;
20458;SDS011;10388;52.314;7.938;2022-07-06T03:57:56;4.37;;;2.37;;
20458;SDS011;10388;52.314;7.938;2022-07-06T04:00:27;3.83;;;2.30;;
20458;SDS011;10388;52.314;7.938;2022-07-06T04:02:58;5.70;;;2.30;;
20458;SDS011;10388;52.314;7.938;2022-07-06T04:05:28;4.07;;;2.00;;
20458;SDS011;10388;52.314;7.938;2022-07-06T04:07:59;4.03;;;2.13;;
20458;SDS011;10388;52.314;7.938;2022-07-06T04:10:29;6.13;;;2.10;;
20458;SDS011;10388;52.314;7.938;2022-07-06T04:13:00;5.00;;;2.30;;
20458;SDS011;10388;52.314;7.938;2022-07-06T04:15:30;4.40;;;2.23;;
20458;SDS011;10388;52.314;7.938;2022-07-06T04:18:01;3.27;;;2.13;;
20458;SDS011;10388;52.314;7.938;2022-07-06T04:20:31;4.13;;;2.40;;
20458;SDS011;10388;52.314;7.938;2022-07-06T04:23:02;4.83;;;2.33;;
20458;SDS011;10388;52.314;7.938;2022-07-06T04:25:33;6.97;;;2.30;;
20458;SDS011;10388;52.314;7.938;2022-07-06T04:28:04;4.13;;;1.97;;
20458;SDS011;10388;52.314;7.938;2022-07-06T04:30:34;8.47;;;2.43;;
20458;SDS011;10388;52.314;7.938;2022-07-06T04:33:05;5.90;;;2.40;;
20458;SDS011;10388;52.314;7.938;2022-07-06T04:35:36;3.33;;;2.10;;
20458;SDS011;10388;52.314;7.938;2022-07-06T04:38:06;4.67;;;2.10;;
20458;SDS011;10388;52.314;7.938;2022-07-06T04:40:37;5.30;;;2.00;;
20458;SDS011;10388;52.314;7.938;2022-07-06T04:43:08;6.00;;;2.20;;
20458;SDS011;10388;52.314;7.938;2022-07-06T04:45:39;8.27;;;2.50;;
20458;SDS011;10388;52.314;7.938;2022-07-06T04:48:09;6.23;;;2.03;;
20458;SDS011;10388;52.314;7.938;2022-07-06T04:50:40;3.40;;;1.80;;
20458;SDS011;10388;52.314;7.938;2022-07-06T04:53:11;6.67;;;2.10;;
20458;SDS011;10388;52.314;7.938;2022-07-06T04:55:41;3.77;;;2.07;;
20458;SDS011;10388;52.314;7.938;2022-07-06T04:58:12;4.07;;;2.53;;
20458;SDS011;10388;52.314;7.938;2022-07-06T05:00:42;5.77;;;1.97;;
20458;SDS011;10388;52.314;7.938;2022-07-06T05:03:13;3.80;;;1.63;;
20458;SDS011;10388;52.314;7.938;2022-07-06T05:05:43;7.90;;;3.07;;
20458;SDS011;10388;52.314;7.938;2022-07-06T05:08:14;3.70;;;1.80;;
20458;SDS011;10388;52.314;7.938;2022-07-06T05:10:44;3.10;;;1.83;;
20458;SDS011;10388;52.314;7.938;2022-07-06T05:13:15;6.53;;;1.67;;
20458;SDS011;10388;52.314;7.938;2022-07-06T05:15:46;2.37;;;1.80;;
20458;SDS011;10388;52.314;7.938;2022-07-06T05:18:16;3.60;;;1.60;;
20458;SDS011;10388;52.314;7.938;2022-07-06T05:20:47;5.23;;;1.93;;
20458;SDS011;10388;52.314;7.938;2022-07-06T05:23:18;4.33;;;1.93;;
20458;SDS011;10388;52.314;7.938;2022-07-06T05:25:48;8.30;;;2.30;;
20458;SDS011;10388;52.314;7.938;2022-07-06T05:28:19;5.33;;;2.10;;
20458;SDS011;10388;52.314;7.938;2022-07-06T05:30:49;4.77;;;2.40;;
20458;SDS011;10388;52.314;7.938;2022-07-06T05:33:20;4.77;;;1.90;;
20458;SDS011;10388;52.314;7.938;2022-07-06T05:35:50;6.77;;;2.20;;
20458;SDS011;10388;52.314;7.938;2022-07-06T05:38:21;7.93;;;2.20;;
20458;SDS011;10388;52.314;7.938;2022-07-06T05:40:51;3.20;;;1.80;;
20458;SDS011;10388;52.314;7.938;2022-07-06T05:43:22;4.90;;;1.83;;
20458;SDS011;10388;52.314;7.938;2022-07-06T05:45:53;3.37;;;2.00;;
20458;SDS011;10388;52.314;7.938;2022-07-06T05:48:23;3.13;;;1.47;;
20458;SDS011;10388;52.314;7.938;2022-07-06T05:51:13;2.17;;;1.60;;
20458;SDS011;10388;52.314;7.938;2022-07-06T05:53:43;3.07;;;1.50;;
20458;SDS011;10388;52.314;7.938;2022-07-06T05:56:14;3.87;;;1.60;;
20458;SDS011;10388;52.314;7.938;2022-07-06T05:58:44;3.90;;;1.63;;
20458;SDS011;10388;52.314;7.938;2022-07-06T06:01:15;2.37;;;1.67;;
20458;SDS011;10388;52.314;7.938;2022-07-06T06:03:46;3.77;;;1.60;;
20458;SDS011;10388;52.314;7.938;2022-07-06T06:06:16;3.43;;;1.83;;
20458;SDS011;10388;52.314;7.938;2022-07-06T06:08:47;4.40;;;1.70;;
20458;SDS011;10388;52.314;7.938;2022-07-06T06:11:17;6.10;;;1.70;;
20458;SDS011;10388;52.314;7.938;2022-07-06T06:13:48;4.53;;;1.90;;
20458;SDS011;10388;52.314;7.938;2022-07-06T06:16:18;3.60;;;1.43;;
20458;SDS011;10388;52.314;7.938;2022-07-06T06:18:49;4.67;;;1.90;;
20458;SDS011;10388;52.314;7.938;2022-07-06T06:21:20;7.00;;;1.70;;
20458;SDS011;10388;52.314;7.938;2022-07-06T06:23:50;7.03;;;1.80;;
20458;SDS011;10388;52.314;7.938;2022-07-06T06:26:21;3.20;;;1.50;;
20458;SDS011;10388;52.314;7.938;2022-07-06T06:28:51;4.90;;;1.57;;
20458;SDS011;10388;52.314;7.938;2022-07-06T06:31:22;1.80;;;1.40;;
20458;SDS011;10388;52.314;7.938;2022-07-06T06:33:52;3.70;;;1.40;;
20458;SDS011;10388;52.314;7.938;2022-07-06T06:36:23;5.13;;;1.60;;
20458;SDS011;10388;52.314;7.938;2022-07-06T06:38:53;2.00;;;1.50;;
20458;SDS011;10388;52.314;7.938;2022-07-06T06:41:24;3.90;;;1.70;;
20458;SDS011;10388;52.314;7.938;2022-07-06T06:43:55;3.90;;;1.47;;
20458;SDS011;10388;52.314;7.938;2022-07-06T06:46:25;2.87;;;1.40;;
20458;SDS011;10388;52.314;7.938;2022-07-06T06:48:56;7.60;;;1.90;;
20458;SDS011;10388;52.314;7.938;2022-07-06T06:51:26;2.37;;;1.33;;
20458;SDS011;10388;52.314;7.938;2022-07-06T06:53:57;3.67;;;1.67;;
20458;SDS011;10388;52.314;7.938;2022-07-06T06:56:27;5.10;;;1.67;;
20458;SDS011;10388;52.314;7.938;2022-07-06T06:58:58;6.03;;;1.40;;
20458;SDS011;10388;52.314;7.938;2022-07-06T07:01:29;2.43;;;1.40;;
20458;SDS011;10388;52.314;7.938;2022-07-06T07:03:59;2.73;;;1.67;;
20458;SDS011;10388;52.314;7.938;2022-07-06T07:06:30;2.53;;;1.20;;
20458;SDS011;10388;52.314;7.938;2022-07-06T07:09:01;3.87;;;1.57;;
20458;SDS011;10388;52.314;7.938;2022-07-06T07:11:31;4.13;;;1.60;;
20458;SDS011;10388;52.314;7.938;2022-07-06T07:14:02;3.50;;;1.17;;
20458;SDS011;10388;52.314;7.938;2022-07-06T07:16:33;3.60;;;1.07;;
20458;SDS011;10388;52.314;7.938;2022-07-06T07:19:03;1.90;;;1.20;;
20458;SDS011;10388;52.314;7.938;2022-07-06T07:21:34;3.37;;;1.13;;
20458;SDS011;10388;52.314;7.938;2022-07-06T07:24:04;2.77;;;1.00;;
20458;SDS011;10388;52.314;7.938;2022-07-06T07:26:36;3.03;;;1.13;;
20458;SDS011;10388;52.314;7.938;2022-07-06T07:29:07;6.63;;;1.17;;
20458;SDS011;10388;52.314;7.938;2022-07-06T07:31:37;2.80;;;0.90;;
20458;SDS011;10388;52.314;7.938;2022-07-06T07:34:08;7.33;;;1.23;;
20458;SDS011;10388;52.314;7.938;2022-07-06T07:36:39;3.07;;;1.20;;
20458;SDS011;10388;52.314;7.938;2022-07-06T07:39:09;3.13;;;1.00;;
20458;SDS011;10388;52.314;7.938;2022-07-06T07:41:40;2.27;;;0.90;;
20458;SDS011;10388;52.314;7.938;2022-07-06T07:44:10;2.43;;;1.03;;
20458;SDS011;10388;52.314;7.938;2022-07-06T07:46:41;1.70;;;0.80;;
20458;SDS011;10388;52.314;7.938;2022-07-06T07:49:12;2.03;;;0.83;;
20458;SDS011;10388;52.314;7.938;2022-07-06T07:51:42;4.33;;;1.10;;
20458;SDS011;10388;52.314;7.938;2022-07-06T07:54:13;6.97;;;1.23;;
20458;SDS011;10388;52.314;7.938;2022-07-06T07:56:43;3.63;;;1.10;;
20458;SDS011;10388;52.314;7.938;2022-07-06T07:59:14;2.27;;;1.00;;
20458;SDS011;10388;52.314;7.938;2022-07-06T08:01:44;5.60;;;1.00;;
20458;SDS011;10388;52.314;7.938;2022-07-06T08:04:15;4.37;;;1.03;;
20458;SDS011;10388;52.314;7.938;2022-07-06T08:06:46;4.03;;;1.10;;
20458;SDS011;10388;52.314;7.938;2022-07-06T08:09:17;4.87;;;1.10;;
20458;SDS011;10388;52.314;7.938;2022-07-06T08:11:48;2.37;;;0.97;;
20458;SDS011;10388;52.314;7.938;2022-07-06T08:14:19;2.83;;;0.83;;
20458;SDS011;10388;52.314;7.938;2022-07-06T08:16:49;4.33;;;1.13;;
20458;SDS011;10388;52.314;7.938;2022-07-06T08:19:20;3.70;;;1.03;;
20458;SDS011;10388;52.314;7.938;2022-07-06T08:21:50;2.27;;;1.10;;
20458;SDS011;10388;52.314;7.938;2022-07-06T08:24:21;3.50;;;1.50;;
20458;SDS011;10388;52.314;7.938;2022-07-06T08:26:52;2.20;;;1.03;;
20458;SDS011;10388;52.314;7.938;2022-07-06T08:29:22;2.77;;;1.13;;
20458;SDS011;10388;52.314;7.938;2022-07-06T08:31:53;3.57;;;0.87;;
20458;SDS011;10388;52.314;7.938;2022-07-06T08:34:23;3.77;;;1.10;;
20458;SDS011;10388;52.314;7.938;2022-07-06T08:36:54;4.13;;;1.17;;
20458;SDS011;10388;52.314;7.938;2022-07-06T08:39:25;1.47;;;0.77;;
20458;SDS011;10388;52.314;7.938;2022-07-06T08:41:55;3.13;;;0.90;;
20458;SDS011;10388;52.314;7.938;2022-07-06T08:44:29;6.23;;;1.20;;
20458;SDS011;10388;52.314;7.938;2022-07-06T08:47:00;3.10;;;1.10;;
20458;SDS011;10388;52.314;7.938;2022-07-06T08:49:35;1.63;;;0.90;;
20458;SDS011;10388;52.314;7.938;2022-07-06T08:52:07;1.90;;;0.90;;
20458;SDS011;10388;52.314;7.938;2022-07-06T08:54:38;3.80;;;1.00;;
20458;SDS011;10388;52.314;7.938;2022-07-06T08:57:09;3.27;;;1.37;;
20458;SDS011;10388;52.314;7.938;2022-07-06T08:59:39;5.37;;;1.23;;
20458;SDS011;10388;52.314;7.938;2022-07-06T09:02:10;3.10;;;0.97;;
20458;SDS011;10388;52.314;7.938;2022-07-06T09:04:42;3.63;;;0.90;;
20458;SDS011;10388;52.314;7.938;2022-07-06T09:07:14;2.87;;;0.80;;
20458;SDS011;10388;52.314;7.938;2022-07-06T09:09:45;4.80;;;0.90;;
20458;SDS011;10388;52.314;7.938;2022-07-06T09:12:16;1.77;;;0.97;;
20458;SDS011;10388;52.314;7.938;2022-07-06T09:14:46;5.50;;;1.13;;
20458;SDS011;10388;52.314;7.938;2022-07-06T09:17:17;1.97;;;1.00;;
20458;SDS011;10388;52.314;7.938;2022-07-06T09:19:48;2.77;;;0.90;;
20458;SDS011;10388;52.314;7.938;2022-07-06T09:22:27;5.20;;;1.33;;
20458;SDS011;10388;52.314;7.938;2022-07-06T09:25:03;3.40;;;0.90;;
20458;SDS011;10388;52.314;7.938;2022-07-06T09:27:37;1.33;;;0.90;;
20458;SDS011;10388;52.314;7.938;2022-07-06T09:30:10;2.33;;;0.70;;
20458;SDS011;10388;52.314;7.938;2022-07-06T09:32:41;2.43;;;0.97;;
20458;SDS011;10388;52.314;7.938;2022-07-06T09:35:30;4.50;;;1.00;;
20458;SDS011;10388;52.314;7.938;2022-07-06T09:40:38;1.53;;;0.63;;
20458;SDS011;10388;52.314;7.938;2022-07-06T09:45:51;1.43;;;0.80;;
20458;SDS011;10388;52.314;7.938;2022-07-06T09:48:24;2.40;;;0.80;;
20458;SDS011;10388;52.314;7.938;2022-07-06T09:50:57;2.60;;;0.80;;
20458;SDS011;10388;52.314;7.938;2022-07-06T09:53:29;4.20;;;0.80;;
20458;SDS011;10388;52.314;7.938;2022-07-06T09:56:00;4.23;;;0.80;;
20458;SDS011;10388;52.314;7.938;2022-07-06T09:58:31;2.83;;;0.80;;
20458;SDS011;10388;52.314;7.938;2022-07-06T10:01:07;2.10;;;0.60;;
20458;SDS011;10388;52.314;7.938;2022-07-06T10:03:39;2.70;;;0.67;;
20458;SDS011;10388;52.314;7.938;2022-07-06T10:06:10;4.33;;;0.70;;
20458;SDS011;10388;52.314;7.938;2022-07-06T10:08:41;1.07;;;0.60;;
20458;SDS011;10388;52.314;7.938;2022-07-06T10:11:13;2.53;;;0.80;;
20458;SDS011;10388;52.314;7.938;2022-07-06T10:13:45;1.67;;;0.60;;
20458;SDS011;10388;52.314;7.938;2022-07-06T10:16:18;3.07;;;0.77;;
20458;SDS011;10388;52.314;7.938;2022-07-06T10:18:50;1.77;;;0.57;;
20458;SDS011;10388;52.314;7.938;2022-07-06T10:21:23;1.70;;;0.80;;
20458;SDS011;10388;52.314;7.938;2022-07-06T10:23:55;1.30;;;0.60;;
20458;SDS011;10388;52.314;7.938;2022-07-06T10:26:30;1.17;;;0.70;;
20458;SDS011;10388;52.314;7.938;2022-07-06T10:29:03;2.07;;;0.63;;
20458;SDS011;10388;52.314;7.938;2022-07-06T10:31:40;1.17;;;0.60;;
20458;SDS011;10388;52.314;7.938;2022-07-06T10:34:18;1.63;;;0.80;;
20458;SDS011;10388;52.314;7.938;2022-07-06T10:36:50;2.13;;;0.60;;
20458;SDS011;10388;52.314;7.938;2022-07-06T10:39:35;3.23;;;0.60;;
20458;SDS011;10388;52.314;7.938;2022-07-06T10:43:00;3.77;;;0.90;;
20458;SDS011;10388;52.314;7.938;2022-07-06T10:53:21;2.93;;;0.57;;
20458;SDS011;10388;52.314;7.938;2022-07-06T10:55:54;1.03;;;0.53;;
20458;SDS011;10388;52.314;7.938;2022-07-06T11:01:15;1.03;;;0.50;;
20458;SDS011;10388;52.314;7.938;2022-07-06T11:03:51;1.43;;;0.60;;
20458;SDS011;10388;52.314;7.938;2022-07-06T11:06:37;1.17;;;0.50;;
20458;SDS011;10388;52.314;7.938;2022-07-06T11:09:10;1.00;;;0.60;;
20458;SDS011;10388;52.314;7.938;2022-07-06T11:11:42;2.53;;;0.67;;
20458;SDS011;10388;52.314;7.938;2022-07-06T11:14:16;2.70;;;0.57;;
20458;SDS011;10388;52.314;7.938;2022-07-06T11:19:19;2.67;;;0.70;;
20458;SDS011;10388;52.314;7.938;2022-07-06T11:21:51;2.80;;;0.73;;
20458;SDS011;10388;52.314;7.938;2022-07-06T11:24:27;2.47;;;0.90;;
20458;SDS011;10388;52.314;7.938;2022-07-06T11:26:59;4.50;;;1.00;;
20458;SDS011;10388;52.314;7.938;2022-07-06T11:29:30;1.57;;;0.90;;
20458;SDS011;10388;52.314;7.938;2022-07-06T11:32:02;2.83;;;0.60;;
20458;SDS011;10388;52.314;7.938;2022-07-06T11:34:34;1.40;;;0.60;;
20458;SDS011;10388;52.314;7.938;2022-07-06T11:37:14;2.13;;;0.60;;
20458;SDS011;10388;52.314;7.938;2022-07-06T11:39:47;2.27;;;0.90;;
20458;SDS011;10388;52.314;7.938;2022-07-06T11:42:18;2.83;;;0.73;;
20458;SDS011;10388;52.314;7.938;2022-07-06T11:44:48;2.50;;;0.67;;
20458;SDS011;10388;52.314;7.938;2022-07-06T11:47:20;2.20;;;0.50;;
20458;SDS011;10388;52.314;7.938;2022-07-06T11:49:51;0.70;;;0.40;;
20458;SDS011;10388;52.314;7.938;2022-07-06T11:52:22;2.60;;;0.73;;
20458;SDS011;10388;52.314;7.938;2022-07-06T11:54:57;1.97;;;0.70;;
20458;SDS011;10388;52.314;7.938;2022-07-06T11:57:29;2.60;;;0.53;;
20458;SDS011;10388;52.314;7.938;2022-07-06T12:00:02;1.87;;;0.70;;
20458;SDS011;10388;52.314;7.938;2022-07-06T12:02:33;1.40;;;0.50;;
20458;SDS011;10388;52.314;7.938;2022-07-06T12:05:04;1.50;;;0.60;;
20458;SDS011;10388;52.314;7.938;2022-07-06T12:07:35;2.80;;;0.50;;
20458;SDS011;10388;52.314;7.938;2022-07-06T12:10:06;1.83;;;0.70;;
20458;SDS011;10388;52.314;7.938;2022-07-06T12:12:36;2.47;;;0.70;;
20458;SDS011;10388;52.314;7.938;2022-07-06T12:15:07;2.40;;;0.50;;
20458;SDS011;10388;52.314;7.938;2022-07-06T12:17:38;0.70;;;0.60;;
20458;SDS011;10388;52.314;7.938;2022-07-06T12:20:13;1.40;;;0.40;;
20458;SDS011;10388;52.314;7.938;2022-07-06T12:22:43;2.53;;;0.50;;
20458;SDS011;10388;52.314;7.938;2022-07-06T12:25:28;2.87;;;0.70;;
20458;SDS011;10388;52.314;7.938;2022-07-06T12:28:00;1.83;;;0.60;;
20458;SDS011;10388;52.314;7.938;2022-07-06T12:30:31;2.43;;;0.53;;
20458;SDS011;10388;52.314;7.938;2022-07-06T12:33:14;1.77;;;0.70;;
20458;SDS011;10388;52.314;7.938;2022-07-06T12:35:46;3.67;;;0.63;;
20458;SDS011;10388;52.314;7.938;2022-07-06T12:38:26;3.57;;;0.60;;
20458;SDS011;10388;52.314;7.938;2022-07-06T12:40:57;1.77;;;0.50;;
20458;SDS011;10388;52.314;7.938;2022-07-06T12:43:34;2.93;;;0.67;;
20458;SDS011;10388;52.314;7.938;2022-07-06T12:49:23;0.57;;;0.50;;
20458;SDS011;10388;52.314;7.938;2022-07-06T12:54:50;0.93;;;0.50;;
20458;SDS011;10388;52.314;7.938;2022-07-06T12:57:22;0.93;;;0.70;;
20458;SDS011;10388;52.314;7.938;2022-07-06T12:59:55;3.73;;;0.60;;
20458;SDS011;10388;52.314;7.938;2022-07-06T13:02:29;0.80;;;0.50;;
20458;SDS011;10388;52.314;7.938;2022-07-06T13:05:03;1.30;;;0.43;;
20458;SDS011;10388;52.314;7.938;2022-07-06T13:07:44;2.97;;;0.40;;
20458;SDS011;10388;52.314;7.938;2022-07-06T13:10:18;2.47;;;0.60;;
20458;SDS011;10388;52.314;7.938;2022-07-06T13:12:49;1.47;;;0.57;;
20458;SDS011;10388;52.314;7.938;2022-07-06T13:15:20;0.77;;;0.40;;
20458;SDS011;10388;52.314;7.938;2022-07-06T13:17:51;0.90;;;0.50;;
20458;SDS011;10388;52.314;7.938;2022-07-06T13:20:22;1.90;;;0.57;;
20458;SDS011;10388;52.314;7.938;2022-07-06T13:22:52;4.80;;;0.60;;
20458;SDS011;10388;52.314;7.938;2022-07-06T13:25:23;1.23;;;0.50;;
20458;SDS011;10388;52.314;7.938;2022-07-06T13:27:53;2.07;;;0.50;;
20458;SDS011;10388;52.314;7.938;2022-07-06T13:30:24;1.20;;;0.50;;
20458;SDS011;10388;52.314;7.938;2022-07-06T13:32:54;3.90;;;0.80;;
20458;SDS011;10388;52.314;7.938;2022-07-06T13:35:26;1.83;;;0.60;;
20458;SDS011;10388;52.314;7.938;2022-07-06T13:37:57;0.90;;;0.50;;
20458;SDS011;10388;52.314;7.938;2022-07-06T13:40:27;2.97;;;0.60;;
20458;SDS011;10388;52.314;7.938;2022-07-06T13:42:58;2.97;;;0.60;;
20458;SDS011;10388;52.314;7.938;2022-07-06T13:45:28;0.90;;;0.40;;
20458;SDS011;10388;52.314;7.938;2022-07-06T13:47:59;1.00;;;0.60;;
20458;SDS011;10388;52.314;7.938;2022-07-06T13:50:30;1.27;;;0.57;;
20458;SDS011;10388;52.314;7.938;2022-07-06T13:53:02;2.90;;;0.63;;
20458;SDS011;10388;52.314;7.938;2022-07-06T13:55:32;2.07;;;0.50;;
20458;SDS011;10388;52.314;7.938;2022-07-06T13:58:03;4.73;;;0.70;;
20458;SDS011;10388;52.314;7.938;2022-07-06T14:00:34;2.27;;;1.00;;
20458;SDS011;10388;52.314;7.938;2022-07-06T14:03:04;1.90;;;0.50;;
20458;SDS011;10388;52.314;7.938;2022-07-06T14:05:35;2.00;;;0.50;;
20458;SDS011;10388;52.314;7.938;2022-07-06T14:08:06;1.53;;;0.60;;
20458;SDS011;10388;52.314;7.938;2022-07-06T14:10:36;1.90;;;0.50;;
20458;SDS011;10388;52.314;7.938;2022-07-06T14:13:07;2.40;;;0.60;;
20458;SDS011;10388;52.314;7.938;2022-07-06T14:15:38;1.67;;;0.60;;
20458;SDS011;10388;52.314;7.938;2022-07-06T14:18:08;1.63;;;0.50;;
20458;SDS011;10388;52.314;7.938;2022-07-06T14:20:39;5.73;;;0.77;;
20458;SDS011;10388;52.314;7.938;2022-07-06T14:23:10;2.33;;;0.60;;
20458;SDS011;10388;52.314;7.938;2022-07-06T14:25:42;3.43;;;0.67;;
20458;SDS011;10388;52.314;7.938;2022-07-06T14:28:13;2.20;;;0.60;;
20458;SDS011;10388;52.314;7.938;2022-07-06T14:30:44;2.70;;;0.53;;
20458;SDS011;10388;52.314;7.938;2022-07-06T14:33:15;2.20;;;0.60;;
20458;SDS011;10388;52.314;7.938;2022-07-06T14:35:47;1.80;;;0.50;;
20458;SDS011;10388;52.314;7.938;2022-07-06T14:38:20;1.23;;;0.60;;
20458;SDS011;10388;52.314;7.938;2022-07-06T14:40:51;1.37;;;0.50;;
20458;SDS011;10388;52.314;7.938;2022-07-06T14:43:22;1.07;;;0.40;;
20458;SDS011;10388;52.314;7.938;2022-07-06T14:45:52;0.83;;;0.47;;
20458;SDS011;10388;52.314;7.938;2022-07-06T14:48:23;3.80;;;0.60;;
20458;SDS011;10388;52.314;7.938;2022-07-06T14:50:54;1.20;;;0.40;;
20458;SDS011;10388;52.314;7.938;2022-07-06T14:53:24;1.10;;;0.50;;
20458;SDS011;10388;52.314;7.938;2022-07-06T14:55:55;0.97;;;0.50;;
20458;SDS011;10388;52.314;7.938;2022-07-06T14:58:26;2.97;;;0.67;;
20458;SDS011;10388;52.314;7.938;2022-07-06T15:00:56;2.43;;;0.70;;
20458;SDS011;10388;52.314;7.938;2022-07-06T15:03:27;1.63;;;0.60;;
20458;SDS011;10388;52.314;7.938;2022-07-06T15:05:58;3.50;;;0.70;;
20458;SDS011;10388;52.314;7.938;2022-07-06T15:08:28;3.30;;;0.70;;
20458;SDS011;10388;52.314;7.938;2022-07-06T15:10:59;0.70;;;0.50;;
20458;SDS011;10388;52.314;7.938;2022-07-06T15:13:29;1.23;;;0.50;;
20458;SDS011;10388;52.314;7.938;2022-07-06T15:16:00;2.87;;;0.70;;
20458;SDS011;10388;52.314;7.938;2022-07-06T15:18:31;0.93;;;0.47;;
20458;SDS011;10388;52.314;7.938;2022-07-06T15:21:01;0.97;;;0.50;;
20458;SDS011;10388;52.314;7.938;2022-07-06T15:23:32;1.13;;;0.40;;
20458;SDS011;10388;52.314;7.938;2022-07-06T15:26:03;0.70;;;0.50;;
20458;SDS011;10388;52.314;7.938;2022-07-06T15:28:33;1.47;;;0.60;;
20458;SDS011;10388;52.314;7.938;2022-07-06T15:31:04;2.57;;;0.53;;
20458;SDS011;10388;52.314;7.938;2022-07-06T15:33:35;1.53;;;0.53;;
20458;SDS011;10388;52.314;7.938;2022-07-06T15:36:05;2.90;;;0.73;;
20458;SDS011;10388;52.314;7.938;2022-07-06T15:38:36;2.33;;;0.47;;
20458;SDS011;10388;52.314;7.938;2022-07-06T15:41:06;0.90;;;0.60;;
20458;SDS011;10388;52.314;7.938;2022-07-06T15:43:37;0.90;;;0.70;;
20458;SDS011;10388;52.314;7.938;2022-07-06T15:46:08;2.10;;;0.50;;
20458;SDS011;10388;52.314;7.938;2022-07-06T15:48:40;2.23;;;0.87;;
20458;SDS011;10388;52.314;7.938;2022-07-06T15:51:11;2.37;;;0.50;;
20458;SDS011;10388;52.314;7.938;2022-07-06T15:56:16;3.93;;;0.70;;
20458;SDS011;10388;52.314;7.938;2022-07-06T15:58:47;2.10;;;0.60;;
20458;SDS011;10388;52.314;7.938;2022-07-06T16:01:18;1.50;;;0.60;;
20458;SDS011;10388;52.314;7.938;2022-07-06T16:03:48;0.90;;;0.50;;
20458;SDS011;10388;52.314;7.938;2022-07-06T16:06:19;0.83;;;0.50;;
20458;SDS011;10388;52.314;7.938;2022-07-06T16:08:50;1.40;;;0.63;;
20458;SDS011;10388;52.314;7.938;2022-07-06T16:11:21;1.63;;;0.80;;
20458;SDS011;10388;52.314;7.938;2022-07-06T16:13:52;3.40;;;1.03;;
20458;SDS011;10388;52.314;7.938;2022-07-06T16:16:23;1.50;;;0.60;;
20458;SDS011;10388;52.314;7.938;2022-07-06T16:18:54;1.77;;;0.53;;
20458;SDS011;10388;52.314;7.938;2022-07-06T16:21:25;4.50;;;0.97;;
20458;SDS011;10388;52.314;7.938;2022-07-06T16:23:56;1.30;;;0.60;;
20458;SDS011;10388;52.314;7.938;2022-07-06T16:26:26;1.50;;;0.60;;
20458;SDS011;10388;52.314;7.938;2022-07-06T16:28:58;0.60;;;0.57;;
20458;SDS011;10388;52.314;7.938;2022-07-06T16:31:29;2.23;;;0.77;;
20458;SDS011;10388;52.314;7.938;2022-07-06T16:34:00;1.53;;;0.90;;
20458;SDS011;10388;52.314;7.938;2022-07-06T16:36:30;1.27;;;0.70;;
20458;SDS011;10388;52.314;7.938;2022-07-06T16:39:01;2.90;;;0.60;;
20458;SDS011;10388;52.314;7.938;2022-07-06T16:41:31;2.80;;;0.70;;
20458;SDS011;10388;52.314;7.938;2022-07-06T16:44:02;3.67;;;0.80;;
20458;SDS011;10388;52.314;7.938;2022-07-06T16:46:33;3.07;;;0.80;;
20458;SDS011;10388;52.314;7.938;2022-07-06T16:49:03;3.90;;;0.70;;
20458;SDS011;10388;52.314;7.938;2022-07-06T16:51:34;2.80;;;0.63;;
20458;SDS011;10388;52.314;7.938;2022-07-06T16:54:05;2.40;;;0.70;;
20458;SDS011;10388;52.314;7.938;2022-07-06T16:56:35;1.63;;;0.67;;
20458;SDS011;10388;52.314;7.938;2022-07-06T16:59:06;2.50;;;0.77;;
20458;SDS011;10388;52.314;7.938;2022-07-06T17:01:36;1.97;;;0.60;;
20458;SDS011;10388;52.314;7.938;2022-07-06T17:04:07;1.67;;;0.77;;
20458;SDS011;10388;52.314;7.938;2022-07-06T17:06:38;2.30;;;0.80;;
20458;SDS011;10388;52.314;7.938;2022-07-06T17:09:08;1.60;;;0.73;;
20458;SDS011;10388;52.314;7.938;2022-07-06T17:11:39;3.90;;;0.70;;
20458;SDS011;10388;52.314;7.938;2022-07-06T17:14:09;4.67;;;0.80;;
20458;SDS011;10388;52.314;7.938;2022-07-06T17:16:40;1.20;;;0.67;;
20458;SDS011;10388;52.314;7.938;2022-07-06T17:19:10;4.07;;;0.70;;
20458;SDS011;10388;52.314;7.938;2022-07-06T17:21:41;4.13;;;0.77;;
20458;SDS011;10388;52.314;7.938;2022-07-06T17:24:11;1.10;;;0.60;;
20458;SDS011;10388;52.314;7.938;2022-07-06T17:26:42;4.00;;;0.80;;
20458;SDS011;10388;52.314;7.938;2022-07-06T17:29:13;1.70;;;0.77;;
20458;SDS011;10388;52.314;7.938;2022-07-06T17:31:44;3.73;;;0.60;;
20458;SDS011;10388;52.314;7.938;2022-07-06T17:34:15;2.93;;;0.73;;
20458;SDS011;10388;52.314;7.938;2022-07-06T17:36:45;3.43;;;0.70;;
20458;SDS011;10388;52.314;7.938;2022-07-06T17:39:16;2.33;;;0.70;;
20458;SDS011;10388;52.314;7.938;2022-07-06T17:41:47;2.73;;;0.80;;
20458;SDS011;10388;52.314;7.938;2022-07-06T17:44:17;1.67;;;0.83;;
20458;SDS011;10388;52.314;7.938;2022-07-06T17:46:48;3.23;;;0.67;;
20458;SDS011;10388;52.314;7.938;2022-07-06T17:49:18;4.13;;;0.83;;
20458;SDS011;10388;52.314;7.938;2022-07-06T17:51:49;2.30;;;0.50;;
20458;SDS011;10388;52.314;7.938;2022-07-06T17:54:19;1.57;;;0.90;;
20458;SDS011;10388;52.314;7.938;2022-07-06T17:56:50;0.70;;;0.60;;
20458;SDS011;10388;52.314;7.938;2022-07-06T17:59:21;2.23;;;0.77;;
20458;SDS011;10388;52.314;7.938;2022-07-06T18:01:51;2.80;;;0.73;;
20458;SDS011;10388;52.314;7.938;2022-07-06T18:04:22;3.77;;;0.80;;
20458;SDS011;10388;52.314;7.938;2022-07-06T18:06:52;4.50;;;0.90;;
20458;SDS011;10388;52.314;7.938;2022-07-06T18:09:23;0.83;;;0.80;;
20458;SDS011;10388;52.314;7.938;2022-07-06T18:11:53;2.40;;;1.00;;
20458;SDS011;10388;52.314;7.938;2022-07-06T18:14:24;4.50;;;0.87;;
20458;SDS011;10388;52.314;7.938;2022-07-06T18:16:55;1.40;;;0.70;;
20458;SDS011;10388;52.314;7.938;2022-07-06T18:19:25;1.63;;;0.63;;
20458;SDS011;10388;52.314;7.938;2022-07-06T18:21:56;1.50;;;0.80;;
20458;SDS011;10388;52.314;7.938;2022-07-06T18:24:26;1.57;;;0.80;;
20458;SDS011;10388;52.314;7.938;2022-07-06T18:26:57;1.87;;;1.10;;
20458;SDS011;10388;52.314;7.938;2022-07-06T18:29:27;1.63;;;0.70;;
20458;SDS011;10388;52.314;7.938;2022-07-06T18:31:58;1.20;;;0.53;;
20458;SDS011;10388;52.314;7.938;2022-07-06T18:34:29;4.00;;;0.87;;
20458;SDS011;10388;52.314;7.938;2022-07-06T18:36:59;3.83;;;0.97;;
20458;SDS011;10388;52.314;7.938;2022-07-06T18:39:30;1.77;;;0.67;;
20458;SDS011;10388;52.314;7.938;2022-07-06T18:42:00;2.80;;;0.90;;
20458;SDS011;10388;52.314;7.938;2022-07-06T18:44:31;2.57;;;1.00;;
20458;SDS011;10388;52.314;7.938;2022-07-06T18:47:02;1.87;;;1.00;;
20458;SDS011;10388;52.314;7.938;2022-07-06T18:49:33;2.67;;;1.00;;
20458;SDS011;10388;52.314;7.938;2022-07-06T18:52:04;2.63;;;0.80;;
20458;SDS011;10388;52.314;7.938;2022-07-06T18:54:35;5.53;;;0.70;;
20458;SDS011;10388;52.314;7.938;2022-07-06T18:57:06;2.70;;;0.83;;
20458;SDS011;10388;52.314;7.938;2022-07-06T18:59:36;3.00;;;1.00;;
20458;SDS011;10388;52.314;7.938;2022-07-06T19:02:07;1.97;;;0.93;;
20458;SDS011;10388;52.314;7.938;2022-07-06T19:04:37;3.13;;;1.00;;
20458;SDS011;10388;52.314;7.938;2022-07-06T19:07:08;4.40;;;0.93;;
20458;SDS011;10388;52.314;7.938;2022-07-06T19:09:40;3.33;;;1.03;;
20458;SDS011;10388;52.314;7.938;2022-07-06T19:12:11;3.47;;;0.97;;